createdAt,value
2018-03-15T00:01:20.858Z,14.97
2018-03-15T00:03:48.946Z,13.93
2018-03-15T00:06:17.113Z,14.97
2018-03-15T00:08:45.233Z,13.40
2018-03-15T00:11:13.320Z,13.80
2018-03-15T00:13:41.475Z,14.10
2018-03-15T00:16:09.861Z,13.77
2018-03-15T00:18:37.952Z,12.90
2018-03-15T00:21:06.814Z,14.00
2018-03-15T00:23:34.908Z,13.40
2018-03-15T00:26:04.258Z,13.00
2018-03-15T00:28:33.057Z,13.17
2018-03-15T00:31:02.292Z,14.63
2018-03-15T00:33:31.204Z,13.80
2018-03-15T00:35:59.308Z,13.30
2018-03-15T00:38:27.401Z,13.70
2018-03-15T00:40:55.483Z,13.53
2018-03-15T00:43:23.589Z,13.10
2018-03-15T00:45:51.751Z,12.70
2018-03-15T00:48:21.353Z,12.47
2018-03-15T00:50:49.441Z,13.60
2018-03-15T00:53:17.521Z,13.60
2018-03-15T00:55:45.613Z,13.40
2018-03-15T00:58:13.696Z,12.27
2018-03-15T01:00:41.813Z,13.10
2018-03-15T01:03:09.906Z,14.43
2018-03-15T01:05:38.008Z,13.33
2018-03-15T01:08:06.101Z,13.10
2018-03-15T01:10:34.299Z,14.53
2018-03-15T01:13:02.416Z,13.60
2018-03-15T01:15:30.598Z,13.43
2018-03-15T01:17:58.705Z,13.57
2018-03-15T01:20:26.801Z,13.03
2018-03-15T01:22:55.682Z,14.63
2018-03-15T01:25:23.764Z,14.73
2018-03-15T01:27:51.857Z,14.30
2018-03-15T01:30:20.671Z,13.90
2018-03-15T01:32:48.820Z,13.20
2018-03-15T01:35:16.955Z,14.53
2018-03-15T01:37:46.195Z,14.60
2018-03-15T01:40:14.318Z,13.63
2018-03-15T01:42:42.452Z,14.30
2018-03-15T01:45:10.555Z,14.87
2018-03-15T01:47:40.668Z,14.37
2018-03-15T01:50:09.625Z,14.87
2018-03-15T01:52:38.745Z,15.30
2018-03-15T01:55:07.019Z,13.77
2018-03-15T01:57:35.640Z,14.87
2018-03-15T02:00:04.519Z,14.23
2018-03-15T02:02:32.642Z,14.83
2018-03-15T02:05:01.813Z,14.50
2018-03-15T02:07:30.715Z,13.83
2018-03-15T02:09:59.679Z,14.43
2018-03-15T02:12:27.774Z,14.30
2018-03-15T02:14:57.075Z,13.70
2018-03-15T02:17:25.230Z,14.63
2018-03-15T02:19:53.321Z,14.47
2018-03-15T02:22:22.189Z,13.23
2018-03-15T02:24:50.287Z,14.37
2018-03-15T02:27:18.375Z,14.47
2018-03-15T02:29:47.387Z,13.30
2018-03-15T02:32:15.487Z,13.30
2018-03-15T02:34:44.567Z,12.33
2018-03-15T02:37:14.245Z,13.20
2018-03-15T02:39:42.367Z,12.77
2018-03-15T02:42:10.460Z,13.53
2018-03-15T02:44:38.932Z,12.50
2018-03-15T02:47:07.042Z,12.80
2018-03-15T02:49:36.730Z,12.37
2018-03-15T02:52:04.838Z,14.17
2018-03-15T02:54:33.122Z,13.43
2018-03-15T02:57:01.215Z,13.90
2018-03-15T02:59:29.326Z,13.07
2018-03-15T03:01:57.396Z,12.70
2018-03-15T03:04:25.492Z,12.20
2018-03-15T03:06:53.577Z,13.00
2018-03-15T03:09:21.846Z,12.43
2018-03-15T03:11:50.812Z,11.53
2018-03-15T03:14:19.671Z,11.93
2018-03-15T03:16:47.823Z,12.77
2018-03-15T03:19:15.942Z,12.97
2018-03-15T03:21:44.316Z,11.73
2018-03-15T03:24:12.428Z,12.00
2018-03-15T03:26:40.541Z,12.47
2018-03-15T03:29:08.669Z,12.70
2018-03-15T03:31:37.759Z,12.87
2018-03-15T03:34:11.931Z,12.93
2018-03-15T03:36:48.469Z,12.20
2018-03-15T03:39:19.429Z,12.30
2018-03-15T03:41:48.764Z,12.10
2018-03-15T03:44:19.663Z,12.13
2018-03-15T03:46:49.895Z,12.97
2018-03-15T03:49:19.467Z,10.57
2018-03-15T03:51:50.936Z,12.53
2018-03-15T03:54:23.408Z,12.67
2018-03-15T03:56:53.550Z,11.97
2018-03-15T03:59:22.844Z,12.03
2018-03-15T04:01:53.801Z,11.53
2018-03-15T04:04:26.546Z,11.90
2018-03-15T04:07:01.486Z,10.47
2018-03-15T04:09:31.557Z,11.40
2018-03-15T04:12:01.258Z,12.47
2018-03-15T04:14:29.462Z,11.87
2018-03-15T04:17:02.209Z,12.20
2018-03-15T04:19:31.263Z,12.47
2018-03-15T04:22:00.116Z,11.90
2018-03-15T04:24:28.503Z,11.73
2018-03-15T04:26:58.193Z,13.13
2018-03-15T04:29:28.685Z,11.80
2018-03-15T04:31:59.157Z,12.43
2018-03-15T04:34:32.796Z,11.43
2018-03-15T04:37:08.250Z,12.20
2018-03-15T04:39:44.276Z,11.37
2018-03-15T04:42:19.871Z,11.73
2018-03-15T04:44:49.494Z,13.33
2018-03-15T04:47:22.089Z,12.37
2018-03-15T04:49:51.081Z,11.73
2018-03-15T04:52:19.342Z,11.40
2018-03-15T04:54:50.595Z,12.20
2018-03-15T04:57:19.867Z,12.77
2018-03-15T04:59:52.630Z,11.43
2018-03-15T05:02:24.984Z,12.00
2018-03-15T05:05:08.508Z,11.10
2018-03-15T05:07:43.704Z,11.90
2018-03-15T05:10:16.358Z,11.80
2018-03-15T05:12:52.735Z,11.50
2018-03-15T05:15:24.674Z,10.90
2018-03-15T05:17:55.272Z,12.77
2018-03-15T05:20:30.650Z,11.37
2018-03-15T05:23:03.165Z,12.50
2018-03-15T05:25:33.018Z,11.43
2018-03-15T05:28:14.710Z,11.17
2018-03-15T05:30:51.825Z,11.60
2018-03-15T05:39:45.388Z,12.43
2018-03-15T05:42:14.735Z,10.00
2018-03-15T05:48:03.580Z,12.00
2018-03-15T05:59:40.129Z,10.70
2018-03-15T06:02:11.084Z,10.70
2018-03-15T06:04:43.719Z,12.87
2018-03-15T06:07:14.572Z,12.20
2018-03-15T06:09:43.951Z,10.77
2018-03-15T06:12:14.278Z,11.33
2018-03-15T06:14:43.485Z,9.80
2018-03-15T06:17:16.282Z,9.80
2018-03-15T06:19:46.699Z,11.80
2018-03-15T06:22:17.616Z,11.00
2018-03-15T06:24:47.674Z,10.60
2018-03-15T06:27:18.183Z,11.77
2018-03-15T06:29:54.341Z,9.83
2018-03-15T06:32:25.334Z,11.20
2018-03-15T06:34:59.363Z,11.60
2018-03-15T06:37:33.388Z,10.60
2018-03-15T06:40:07.466Z,10.53
2018-03-15T06:42:46.657Z,11.40
2018-03-15T06:45:30.350Z,10.13
2018-03-15T06:47:59.724Z,10.93
2018-03-15T06:50:28.966Z,10.40
2018-03-15T06:52:57.081Z,9.50
2018-03-15T06:55:26.252Z,10.90
2018-03-15T06:57:55.246Z,10.60
2018-03-15T07:00:23.478Z,10.73
2018-03-15T07:02:51.784Z,10.60
2018-03-15T07:05:21.426Z,10.47
2018-03-15T07:07:51.936Z,10.10
2018-03-15T07:10:21.210Z,11.10
2018-03-15T07:12:49.582Z,10.53
2018-03-15T07:15:19.446Z,11.17
2018-03-15T07:17:49.236Z,10.23
2018-03-15T07:20:18.465Z,9.77
2018-03-15T07:22:46.773Z,10.30
2018-03-15T07:25:16.557Z,10.40
2018-03-15T07:27:44.796Z,11.60
2018-03-15T07:30:15.928Z,10.37
2018-03-15T07:32:44.869Z,10.50
2018-03-15T07:35:13.953Z,10.63
2018-03-15T07:37:43.627Z,9.83
2018-03-15T07:40:12.586Z,10.90
2018-03-15T07:42:40.820Z,8.97
2018-03-15T07:45:09.620Z,10.20
2018-03-15T07:47:38.565Z,10.40
2018-03-15T07:50:08.019Z,10.10
2018-03-15T07:52:37.225Z,12.77
2018-03-15T07:55:05.911Z,10.37
2018-03-15T07:57:34.248Z,10.57
2018-03-15T08:00:02.470Z,10.07
2018-03-15T08:02:30.564Z,9.83
2018-03-15T08:04:58.660Z,10.30
2018-03-15T08:07:26.770Z,10.37
2018-03-15T08:09:54.881Z,10.40
2018-03-15T08:12:22.974Z,10.07
2018-03-15T08:14:51.091Z,10.07
2018-03-15T08:17:20.034Z,9.77
2018-03-15T08:19:48.140Z,9.13
2018-03-15T08:22:16.241Z,10.37
2018-03-15T08:24:44.322Z,8.67
2018-03-15T08:27:12.440Z,9.47
2018-03-15T08:29:41.556Z,9.40
2018-03-15T08:32:10.423Z,8.47
2018-03-15T08:34:38.625Z,9.30
2018-03-15T08:37:06.876Z,8.80
2018-03-15T08:39:34.988Z,8.37
2018-03-15T08:42:03.085Z,9.17
2018-03-15T08:44:31.172Z,8.83
2018-03-15T08:46:59.736Z,9.53
2018-03-15T08:49:27.839Z,10.00
2018-03-15T08:51:56.809Z,9.70
2018-03-15T08:54:24.919Z,9.30
2018-03-15T08:56:53.708Z,8.97
2018-03-15T08:59:21.889Z,9.30
2018-03-15T09:01:49.990Z,8.90
2018-03-15T09:04:18.108Z,9.50
2018-03-15T09:06:46.275Z,8.50
2018-03-15T09:09:14.408Z,8.37
2018-03-15T09:11:42.501Z,8.23
2018-03-15T09:14:10.980Z,8.23
2018-03-15T09:16:39.087Z,7.57
2018-03-15T09:19:07.204Z,7.80
2018-03-15T09:21:35.419Z,7.30
2018-03-15T09:24:03.485Z,7.93
2018-03-15T09:26:31.599Z,8.00
2018-03-15T09:29:00.432Z,7.40
2018-03-15T09:31:29.503Z,8.10
2018-03-15T09:33:58.414Z,7.10
2018-03-15T09:36:26.562Z,9.13
2018-03-15T09:38:55.427Z,8.27
2018-03-15T09:41:23.536Z,7.90
2018-03-15T09:43:51.677Z,8.20
2018-03-15T09:46:19.867Z,7.70
2018-03-15T09:48:49.582Z,7.63
2018-03-15T09:51:17.702Z,7.57
2018-03-15T09:53:45.813Z,7.40
2018-03-15T09:56:13.917Z,7.27
2018-03-15T09:58:42.059Z,6.97
2018-03-15T10:01:10.150Z,6.43
2018-03-15T10:03:38.254Z,8.63
2018-03-15T10:06:06.482Z,7.50
2018-03-15T10:08:35.350Z,7.13
2018-03-15T10:11:03.466Z,6.83
2018-03-15T10:13:31.658Z,6.90
2018-03-15T10:15:59.813Z,6.70
2018-03-15T10:18:27.929Z,6.30
2018-03-15T10:20:57.594Z,6.37
2018-03-15T10:23:26.822Z,6.53
2018-03-15T10:25:54.930Z,5.97
2018-03-15T10:28:24.029Z,6.40
2018-03-15T10:30:52.141Z,6.70
2018-03-15T10:33:29.946Z,7.10
2018-03-15T10:36:03.087Z,7.13
2018-03-15T10:38:34.741Z,6.50
2018-03-15T10:41:10.416Z,6.90
2018-03-15T10:43:42.817Z,7.03
2018-03-15T10:46:13.588Z,6.80
2018-03-15T10:48:47.690Z,6.47
2018-03-15T10:51:18.386Z,6.87
2018-03-15T10:53:52.804Z,7.03
2018-03-15T10:56:27.152Z,6.70
2018-03-15T10:58:56.012Z,6.53
2018-03-15T11:01:26.864Z,6.30
2018-03-15T11:04:04.017Z,6.43
2018-03-15T11:06:39.395Z,6.77
2018-03-15T11:12:20.041Z,6.43
2018-03-15T11:14:49.580Z,5.83
2018-03-15T11:17:22.830Z,6.50
2018-03-15T11:19:54.325Z,6.73
2018-03-15T11:22:23.730Z,6.63
2018-03-15T11:24:54.656Z,5.87
2018-03-15T11:27:28.322Z,5.17
2018-03-15T11:29:57.897Z,6.20
2018-03-15T11:32:26.152Z,5.67
2018-03-15T11:34:55.764Z,5.00
2018-03-15T11:37:28.978Z,6.13
2018-03-15T11:40:01.308Z,4.83
2018-03-15T11:42:32.440Z,5.30
2018-03-15T11:45:09.592Z,5.50
2018-03-15T11:47:40.790Z,6.00
2018-03-15T11:50:11.756Z,5.70
2018-03-15T11:52:42.743Z,5.23
2018-03-15T11:55:15.667Z,4.70
2018-03-15T11:57:44.910Z,5.20
2018-03-15T12:00:17.227Z,5.67
2018-03-15T12:02:49.448Z,5.80
2018-03-15T12:05:20.323Z,5.40
2018-03-15T12:07:53.909Z,4.83
2018-03-15T12:10:22.717Z,5.87
2018-03-15T12:12:51.944Z,6.77
2018-03-15T12:15:22.919Z,5.20
2018-03-15T12:17:52.430Z,5.10
2018-03-15T12:20:20.843Z,5.50
2018-03-15T12:22:49.172Z,5.23
2018-03-15T12:25:17.618Z,5.90
2018-03-15T12:27:48.573Z,5.50
2018-03-15T12:30:18.678Z,4.63
2018-03-15T12:32:47.649Z,5.43
2018-03-15T12:35:18.668Z,5.57
2018-03-15T12:37:55.944Z,5.57
2018-03-15T12:40:29.306Z,5.63
2018-03-15T12:43:06.696Z,5.13
2018-03-15T12:45:37.569Z,5.70
2018-03-15T12:50:47.699Z,5.40
2018-03-15T12:53:17.617Z,4.30
2018-03-15T12:55:47.604Z,5.30
2018-03-15T12:58:19.468Z,5.53
2018-03-15T13:00:55.741Z,5.60
2018-03-15T13:03:25.437Z,5.23
2018-03-15T13:05:57.127Z,5.57
2018-03-15T13:08:28.992Z,5.30
2018-03-15T13:10:57.696Z,5.20
2018-03-15T13:13:27.202Z,4.70
2018-03-15T13:15:56.687Z,5.10
2018-03-15T13:18:26.537Z,5.37
2018-03-15T13:20:59.202Z,5.80
2018-03-15T13:23:34.103Z,5.30
2018-03-15T13:26:04.090Z,4.73
2018-03-15T13:28:36.002Z,5.17
2018-03-15T13:31:06.642Z,4.77
2018-03-15T13:33:39.974Z,5.30
2018-03-15T13:36:10.003Z,5.10
2018-03-15T13:38:41.580Z,5.10
2018-03-15T13:41:10.968Z,4.93
2018-03-15T13:43:50.365Z,5.03
2018-03-15T13:46:22.245Z,4.13
2018-03-15T13:48:52.111Z,5.30
2018-03-15T13:51:21.478Z,5.27
2018-03-15T13:53:50.020Z,4.30
2018-03-15T13:56:23.021Z,5.30
2018-03-15T13:58:52.333Z,4.80
2018-03-15T14:01:25.127Z,5.30
2018-03-15T14:03:56.294Z,5.00
2018-03-15T14:06:26.668Z,4.90
2018-03-15T14:08:56.030Z,5.43
2018-03-15T14:11:24.481Z,4.83
2018-03-15T14:13:54.352Z,4.33
2018-03-15T14:16:24.007Z,5.30
2018-03-15T14:18:54.863Z,4.97
2018-03-15T14:21:29.896Z,4.90
2018-03-15T14:23:59.897Z,3.90
2018-03-15T14:26:31.242Z,4.27
2018-03-15T14:29:00.897Z,4.20
2018-03-15T14:31:29.818Z,4.17
2018-03-15T14:34:01.859Z,4.97
2018-03-15T14:36:30.196Z,4.90
2018-03-15T14:45:46.536Z,4.80
2018-03-15T14:55:00.278Z,4.73
2018-03-15T14:57:32.644Z,4.40
2018-03-15T15:00:01.134Z,5.50
2018-03-15T15:02:34.987Z,4.27
2018-03-15T15:05:13.839Z,4.73
2018-03-15T15:07:42.196Z,4.87
2018-03-15T15:10:11.723Z,4.73
2018-03-15T15:12:41.403Z,4.60
2018-03-15T15:15:09.753Z,4.30
2018-03-15T15:17:39.383Z,3.83
2018-03-15T15:20:07.656Z,4.40
2018-03-15T15:22:35.852Z,4.33
2018-03-15T15:25:05.409Z,4.80
2018-03-15T15:27:34.237Z,4.87
2018-03-15T15:30:03.217Z,4.87
2018-03-15T15:32:33.057Z,5.20
2018-03-15T15:35:01.481Z,4.40
2018-03-15T15:37:34.812Z,4.60
2018-03-15T15:40:13.086Z,4.40
2018-03-15T15:42:43.589Z,4.33
2018-03-15T15:45:13.958Z,5.10
2018-03-15T15:47:45.284Z,4.50
2018-03-15T15:50:14.533Z,4.30
2018-03-15T15:52:52.840Z,4.43
2018-03-15T15:55:27.134Z,4.20
2018-03-15T15:58:04.744Z,4.57
2018-03-15T16:00:40.230Z,4.90
2018-03-15T16:03:16.792Z,5.10
2018-03-15T16:05:47.660Z,4.27
2018-03-15T16:08:20.048Z,4.57
2018-03-15T16:10:54.670Z,4.50
2018-03-15T16:13:25.360Z,4.73
2018-03-15T16:15:54.744Z,4.90
2018-03-15T16:18:25.277Z,4.83
2018-03-15T16:20:54.956Z,4.50
2018-03-15T16:23:23.372Z,4.60
2018-03-15T16:25:54.859Z,6.27
2018-03-15T16:28:25.424Z,4.37
2018-03-15T16:30:54.063Z,4.40
2018-03-15T16:33:25.475Z,3.83
2018-03-15T16:35:56.740Z,4.43
2018-03-15T16:38:26.401Z,5.40
2018-03-15T16:40:54.920Z,4.40
2018-03-15T16:43:25.961Z,4.40
2018-03-15T16:45:54.114Z,4.27
2018-03-15T16:48:22.260Z,4.30
2018-03-15T16:50:51.040Z,4.00
2018-03-15T16:53:19.160Z,4.57
2018-03-15T16:55:48.173Z,4.40
2018-03-15T16:58:17.716Z,4.40
2018-03-15T17:00:45.931Z,4.50
2018-03-15T17:03:14.405Z,3.90
2018-03-15T17:05:42.564Z,5.00
2018-03-15T17:08:10.858Z,5.20
2018-03-15T17:10:47.606Z,4.63
2018-03-15T17:13:16.943Z,4.00
2018-03-15T17:15:45.913Z,3.80
2018-03-15T17:18:14.172Z,3.80
2018-03-15T17:20:43.186Z,3.80
2018-03-15T17:23:11.456Z,4.17
2018-03-15T17:25:39.588Z,4.27
2018-03-15T17:28:07.755Z,4.10
2018-03-15T17:30:35.889Z,3.83
2018-03-15T17:33:04.652Z,3.67
2018-03-15T17:35:33.226Z,4.30
2018-03-15T17:38:01.605Z,3.93
2018-03-15T17:40:31.189Z,4.57
2018-03-15T17:43:03.165Z,3.83
2018-03-15T17:45:34.131Z,4.00
2018-03-15T17:48:02.638Z,4.43
2018-03-15T17:50:31.915Z,3.90
2018-03-15T17:53:01.724Z,4.00
2018-03-15T17:55:29.958Z,4.50
2018-03-15T17:57:58.895Z,4.30
2018-03-15T18:00:27.409Z,3.93
2018-03-15T18:02:55.663Z,4.40
2018-03-15T18:05:25.532Z,4.20
2018-03-15T18:07:56.316Z,4.80
2018-03-15T18:10:26.145Z,3.97
2018-03-15T18:12:55.388Z,4.60
2018-03-15T18:15:24.211Z,4.07
2018-03-15T18:17:54.669Z,4.53
2018-03-15T18:20:25.118Z,4.70
2018-03-15T18:22:55.729Z,5.00
2018-03-15T18:25:24.614Z,4.33
2018-03-15T18:27:52.930Z,5.40
2018-03-15T18:30:24.293Z,5.10
2018-03-15T18:32:55.051Z,5.50
2018-03-15T18:35:24.543Z,4.57
2018-03-15T18:37:53.473Z,4.23
2018-03-15T18:40:23.834Z,4.13
2018-03-15T18:42:53.940Z,5.67
2018-03-15T18:45:24.025Z,4.97
2018-03-15T18:47:58.749Z,5.83
2018-03-15T18:50:29.675Z,5.40
2018-03-15T18:52:58.003Z,5.67
2018-03-15T18:55:26.195Z,4.83
2018-03-15T18:58:00.039Z,5.27
2018-03-15T19:00:34.732Z,6.30
2018-03-15T19:03:03.936Z,8.07
2018-03-15T19:05:32.922Z,5.80
2018-03-15T19:08:01.822Z,6.57
2018-03-15T19:10:29.927Z,6.70
2018-03-15T19:12:58.789Z,6.40
2018-03-15T19:15:26.884Z,6.60
2018-03-15T19:17:55.361Z,7.10
2018-03-15T19:20:23.535Z,7.67
2018-03-15T19:22:51.633Z,23.73
2018-03-15T19:25:19.739Z,8.50
2018-03-15T19:34:31.735Z,8.60
2018-03-15T19:37:00.812Z,7.23
2018-03-15T19:39:29.035Z,7.83
2018-03-15T19:41:59.042Z,7.97
2018-03-15T19:44:31.205Z,7.73
2018-03-15T19:46:59.959Z,7.90
2018-03-15T19:49:28.154Z,7.53
2018-03-15T19:51:56.291Z,7.37
2018-03-15T19:54:25.338Z,7.73
2018-03-15T19:56:54.176Z,7.10
2018-03-15T19:59:22.311Z,8.00
2018-03-15T20:01:50.420Z,11.30
2018-03-15T20:04:18.561Z,7.97
2018-03-15T20:06:46.903Z,7.70
2018-03-15T20:09:15.061Z,7.37
2018-03-15T20:11:49.009Z,7.50
2018-03-15T20:14:18.626Z,7.60
2018-03-15T20:16:48.227Z,8.33
2018-03-15T20:19:19.069Z,8.40
2018-03-15T20:21:55.109Z,8.27
2018-03-15T20:24:35.282Z,9.17
2018-03-15T20:27:06.496Z,9.10
2018-03-15T20:29:35.869Z,10.50
2018-03-15T20:32:06.004Z,9.03
2018-03-15T20:34:36.719Z,8.43
2018-03-15T20:37:09.627Z,7.63
2018-03-15T20:39:45.591Z,9.23
2018-03-15T20:42:16.936Z,9.83
2018-03-15T20:44:46.477Z,8.07
2018-03-15T20:47:25.691Z,9.17
2018-03-15T20:49:57.119Z,8.90
2018-03-15T20:52:26.880Z,9.50
2018-03-15T20:54:58.169Z,8.10
2018-03-15T20:57:27.878Z,18.87
2018-03-15T20:59:57.585Z,12.20
2018-03-15T21:02:27.001Z,9.70
2018-03-15T21:04:57.027Z,9.63
2018-03-15T21:07:25.392Z,10.97
2018-03-15T21:09:54.709Z,10.07
2018-03-15T21:12:23.990Z,10.50
2018-03-15T21:14:58.403Z,11.10
2018-03-15T21:17:30.024Z,11.50
2018-03-15T21:19:58.705Z,10.60
2018-03-15T21:22:27.833Z,11.80
2018-03-15T21:24:58.128Z,12.70
2018-03-15T21:27:26.605Z,14.50
2018-03-15T21:29:56.258Z,21.97
2018-03-15T21:32:24.397Z,14.27
2018-03-15T21:41:06.908Z,11.74
2018-03-15T21:43:35.141Z,12.30
2018-03-15T21:46:03.639Z,13.23
2018-03-15T21:48:31.751Z,11.73
2018-03-15T21:50:59.815Z,13.37
2018-03-15T21:53:28.818Z,12.80
2018-03-15T21:55:56.936Z,12.80
2018-03-15T21:58:25.850Z,13.33
2018-03-15T22:00:53.926Z,12.67
2018-03-15T22:03:24.360Z,12.87
2018-03-15T22:05:52.463Z,13.93
2018-03-15T22:08:20.552Z,13.47
2018-03-15T22:10:49.033Z,13.50
2018-03-15T22:13:17.197Z,14.10
2018-03-15T22:15:45.904Z,14.67
2018-03-15T22:18:14.855Z,14.20
2018-03-15T22:20:43.725Z,15.13
2018-03-15T22:23:11.791Z,14.50
2018-03-15T22:25:39.867Z,14.03
2018-03-15T22:28:07.977Z,14.33
2018-03-15T22:30:36.090Z,13.93
2018-03-15T22:33:04.211Z,15.17
2018-03-15T22:35:32.299Z,14.17
2018-03-15T22:38:00.389Z,14.47
2018-03-15T22:40:28.458Z,15.80
2018-03-15T22:42:57.828Z,15.10
2018-03-15T22:45:25.892Z,15.87
2018-03-15T22:47:54.140Z,14.70
2018-03-15T22:50:23.550Z,14.50
2018-03-15T22:52:54.179Z,15.43
2018-03-15T22:55:22.255Z,14.93
2018-03-15T22:57:54.883Z,15.27
2018-03-15T23:00:24.778Z,16.30
2018-03-15T23:02:52.868Z,15.10
2018-03-15T23:05:22.630Z,14.70
2018-03-15T23:07:51.009Z,14.73
2018-03-15T23:10:19.904Z,14.90
2018-03-15T23:12:48.000Z,14.70
2018-03-15T23:15:17.708Z,16.97
2018-03-15T23:17:45.867Z,14.83
2018-03-15T23:20:17.163Z,16.13
2018-03-15T23:22:45.688Z,14.60
2018-03-15T23:25:14.531Z,14.70
2018-03-15T23:27:44.244Z,16.70
2018-03-15T23:30:13.086Z,15.97
2018-03-15T23:32:41.172Z,15.50
2018-03-15T23:35:10.017Z,15.70
2018-03-15T23:37:38.135Z,16.80
2018-03-15T23:40:06.208Z,15.20
2018-03-15T23:42:35.075Z,15.63
2018-03-15T23:45:04.148Z,16.27
2018-03-15T23:47:32.235Z,15.73
2018-03-15T23:50:00.334Z,15.50
2018-03-15T23:52:29.179Z,16.40
2018-03-15T23:54:57.293Z,16.37
2018-03-15T23:57:25.363Z,16.23
2018-03-15T23:59:53.446Z,15.43
